ROT225 LROP-LKPR
Flight info
| Callsign | ROT225 |
|---|---|
| Flight time | N/A |
| Altitude | 36000 |
| Route | SOKRU DCT OXDOC DCT BUDOP DCT PATAK DCT LALES DCT TUMKA DCT VLM |
| Aircraft | B738/M-SDE2E3FGHIRWXY/LB1 |
Departure
| Time | 2026-05-05 17:50 |
|---|---|
| Airport | Bucharest Henri Coandă International Airport (LROP) |
Arrival
| Time | N/A |
|---|---|
| Airport | Václav Havel Airport Prague (LKPR) |
| Time | Latitude | Longitude | Altitude | Speed | Heading |
|---|---|---|---|---|---|
| 2026-05-05 17:26 | 44.57016 | 26.08132 | 318 ft | 0 kts | 354° |
| 2026-05-05 17:39 | 44.57006 | 26.08133 | 317 ft | 2 kts | 354° |
| 2026-05-05 17:39 | 44.56991 | 26.08135 | 317 ft | 2 kts | 354° |
| 2026-05-05 17:40 | 44.56976 | 26.08138 | 317 ft | 2 kts | 354° |
| 2026-05-05 17:40 | 44.56961 | 26.08140 | 317 ft | 2 kts | 354° |
| 2026-05-05 17:40 | 44.56947 | 26.08139 | 317 ft | 2 kts | 30° |
| 2026-05-05 17:40 | 44.56937 | 26.08124 | 317 ft | 2 kts | 72° |
| 2026-05-05 17:41 | 44.56936 | 26.08116 | 317 ft | 1 kts | 91° |
| 2026-05-05 17:41 | 44.56935 | 26.08109 | 317 ft | 0 kts | 85° |
| 2026-05-05 17:42 | 44.56938 | 26.08146 | 317 ft | 11 kts | 83° |
| 2026-05-05 17:43 | 44.56948 | 26.08285 | 317 ft | 14 kts | 84° |
| 2026-05-05 17:43 | 44.56916 | 26.08405 | 316 ft | 19 kts | 132° |
| 2026-05-05 17:43 | 44.56959 | 26.08544 | 316 ft | 18 kts | 357° |
| 2026-05-05 17:43 | 44.57102 | 26.08524 | 317 ft | 23 kts | 354° |
| 2026-05-05 17:44 | 44.57256 | 26.08500 | 317 ft | 20 kts | 353° |
| 2026-05-05 17:44 | 44.57390 | 26.08480 | 317 ft | 17 kts | 354° |
| 2026-05-05 17:44 | 44.57493 | 26.08523 | 318 ft | 20 kts | 66° |
| 2026-05-05 17:44 | 44.57515 | 26.08736 | 317 ft | 20 kts | 85° |
| 2026-05-05 17:45 | 44.57529 | 26.08926 | 316 ft | 18 kts | 83° |
| 2026-05-05 17:45 | 44.57542 | 26.09101 | 315 ft | 18 kts | 84° |
| 2026-05-05 17:45 | 44.57558 | 26.09308 | 313 ft | 20 kts | 83° |
| 2026-05-05 17:45 | 44.57573 | 26.09509 | 312 ft | 24 kts | 84° |
| 2026-05-05 17:46 | 44.57592 | 26.09758 | 310 ft | 24 kts | 84° |
| 2026-05-05 17:46 | 44.57609 | 26.09979 | 310 ft | 21 kts | 82° |
| 2026-05-05 17:46 | 44.57627 | 26.10212 | 309 ft | 26 kts | 84° |
| 2026-05-05 17:46 | 44.57645 | 26.10451 | 309 ft | 23 kts | 84° |
| 2026-05-05 17:47 | 44.57664 | 26.10702 | 309 ft | 26 kts | 83° |
| 2026-05-05 17:47 | 44.57683 | 26.10941 | 309 ft | 22 kts | 84° |
| 2026-05-05 17:47 | 44.57700 | 26.11154 | 309 ft | 22 kts | 83° |
| 2026-05-05 17:47 | 44.57715 | 26.11363 | 309 ft | 20 kts | 86° |
| 2026-05-05 17:48 | 44.57729 | 26.11557 | 309 ft | 24 kts | 83° |
| 2026-05-05 17:48 | 44.57753 | 26.11875 | 309 ft | 34 kts | 84° |
| 2026-05-05 17:48 | 44.57777 | 26.12187 | 309 ft | 30 kts | 84° |
| 2026-05-05 17:48 | 44.57797 | 26.12468 | 309 ft | 27 kts | 83° |
| 2026-05-05 17:49 | 44.57813 | 26.12676 | 309 ft | 15 kts | 84° |
| 2026-05-05 17:49 | 44.57829 | 26.12820 | 309 ft | 14 kts | 70° |
| 2026-05-05 17:49 | 44.57880 | 26.12855 | 309 ft | 5 kts | 329° |
| 2026-05-05 17:49 | 44.57942 | 26.12797 | 309 ft | 21 kts | 323° |
| 2026-05-05 17:50 | 44.57977 | 26.12583 | 309 ft | 39 kts | 263° |
| 2026-05-05 17:50 | 44.57917 | 26.11817 | 309 ft | 118 kts | 263° |
| 2026-05-05 17:50 | 44.57808 | 26.10359 | 373 ft | 175 kts | 263° |
| 2026-05-05 17:50 | 44.57678 | 26.08595 | 1115 ft | 185 kts | 263° |
| 2026-05-05 17:51 | 44.57569 | 26.06816 | 1821 ft | 191 kts | 263° |
| 2026-05-05 17:51 | 44.57449 | 26.04925 | 2367 ft | 201 kts | 263° |
| 2026-05-05 17:51 | 44.57307 | 26.02944 | 2870 ft | 213 kts | 263° |
| 2026-05-05 17:51 | 44.57384 | 26.00821 | 3313 ft | 230 kts | 290° |
| 2026-05-05 17:52 | 44.58263 | 25.98902 | 3898 ft | 240 kts | 311° |
| 2026-05-05 17:52 | 44.59432 | 25.97147 | 4381 ft | 256 kts | 312° |
| 2026-05-05 17:52 | 44.60614 | 25.95266 | 5067 ft | 262 kts | 310° |
| 2026-05-05 17:52 | 44.61776 | 25.93264 | 5823 ft | 266 kts | 309° |
| 2026-05-05 17:53 | 44.62907 | 25.91241 | 6629 ft | 267 kts | 309° |
| 2026-05-05 17:53 | 44.64051 | 25.89183 | 7373 ft | 270 kts | 309° |
| 2026-05-05 17:53 | 44.65202 | 25.87114 | 8077 ft | 275 kts | 310° |
| 2026-05-05 17:53 | 44.66389 | 25.84989 | 8820 ft | 277 kts | 311° |
| 2026-05-05 17:54 | 44.67572 | 25.82878 | 9527 ft | 280 kts | 312° |
| 2026-05-05 17:54 | 44.68787 | 25.80707 | 10237 ft | 284 kts | 312° |
| 2026-05-05 17:54 | 44.70034 | 25.78482 | 10663 ft | 299 kts | 312° |
| 2026-05-05 17:54 | 44.71336 | 25.76158 | 11151 ft | 310 kts | 312° |
| 2026-05-05 17:55 | 44.72665 | 25.73777 | 11803 ft | 316 kts | 312° |
| 2026-05-05 17:55 | 44.74026 | 25.71331 | 12452 ft | 320 kts | 312° |
| 2026-05-05 17:55 | 44.75391 | 25.68869 | 13107 ft | 324 kts | 312° |
| 2026-05-05 17:55 | 44.76790 | 25.66346 | 13782 ft | 328 kts | 312° |
| 2026-05-05 17:56 | 44.78188 | 25.63822 | 14460 ft | 331 kts | 311° |
| 2026-05-05 17:56 | 44.79594 | 25.61283 | 15154 ft | 333 kts | 311° |
| 2026-05-05 17:56 | 44.81025 | 25.58699 | 15846 ft | 335 kts | 311° |
| 2026-05-05 17:56 | 44.82453 | 25.56118 | 16525 ft | 338 kts | 311° |
| 2026-05-05 17:57 | 44.83901 | 25.53499 | 17158 ft | 341 kts | 311° |
| 2026-05-05 17:57 | 44.85354 | 25.50871 | 17759 ft | 345 kts | 311° |
| 2026-05-05 17:57 | 44.86835 | 25.48189 | 18348 ft | 349 kts | 311° |
| 2026-05-05 17:57 | 44.88309 | 25.45519 | 18986 ft | 351 kts | 311° |
| 2026-05-05 17:58 | 44.89806 | 25.42803 | 19587 ft | 353 kts | 311° |
| 2026-05-05 17:58 | 44.91308 | 25.40077 | 20175 ft | 356 kts | 311° |
| 2026-05-05 17:58 | 44.92827 | 25.37318 | 20767 ft | 358 kts | 311° |
| 2026-05-05 17:58 | 44.94360 | 25.34529 | 21356 ft | 360 kts | 310° |
| 2026-05-05 17:59 | 44.95919 | 25.31693 | 21910 ft | 363 kts | 310° |
| 2026-05-05 17:59 | 44.97450 | 25.28902 | 22474 ft | 364 kts | 310° |
| 2026-05-05 17:59 | 44.99011 | 25.26053 | 23005 ft | 367 kts | 310° |
| 2026-05-05 17:59 | 45.00570 | 25.23206 | 23592 ft | 367 kts | 310° |
| 2026-05-05 18:00 | 45.02143 | 25.20327 | 24066 ft | 370 kts | 310° |
| 2026-05-05 18:00 | 45.03697 | 25.17445 | 24592 ft | 372 kts | 309° |
| 2026-05-05 18:00 | 45.05193 | 25.14459 | 24970 ft | 377 kts | 307° |
| 2026-05-05 18:00 | 45.06657 | 25.11382 | 25464 ft | 378 kts | 306° |
| 2026-05-05 18:01 | 45.08102 | 25.08293 | 25874 ft | 381 kts | 306° |
| 2026-05-05 18:01 | 45.09575 | 25.05139 | 26334 ft | 383 kts | 306° |
| 2026-05-05 18:01 | 45.11043 | 25.02006 | 26757 ft | 385 kts | 306° |
| 2026-05-05 18:01 | 45.12535 | 24.98834 | 27218 ft | 386 kts | 307° |
| 2026-05-05 18:02 | 45.14038 | 24.95652 | 27627 ft | 388 kts | 306° |
| 2026-05-05 18:02 | 45.15537 | 24.92484 | 28026 ft | 391 kts | 307° |
| 2026-05-05 18:02 | 45.17040 | 24.89311 | 28392 ft | 393 kts | 307° |
| 2026-05-05 18:02 | 45.18571 | 24.86077 | 28814 ft | 394 kts | 307° |
| 2026-05-05 18:03 | 45.20100 | 24.82847 | 29178 ft | 397 kts | 307° |
| 2026-05-05 18:03 | 45.21629 | 24.79614 | 29523 ft | 399 kts | 307° |
| 2026-05-05 18:03 | 45.23174 | 24.76342 | 29911 ft | 401 kts | 306° |
| 2026-05-05 18:03 | 45.24737 | 24.73028 | 30280 ft | 402 kts | 307° |
| 2026-05-05 18:04 | 45.26284 | 24.69747 | 30639 ft | 404 kts | 306° |
| 2026-05-05 18:04 | 45.27859 | 24.66399 | 30972 ft | 406 kts | 307° |
| 2026-05-05 18:04 | 45.29429 | 24.63060 | 31269 ft | 409 kts | 306° |
| 2026-05-05 18:04 | 45.31023 | 24.59664 | 31636 ft | 410 kts | 306° |
| 2026-05-05 18:05 | 45.32597 | 24.56311 | 31934 ft | 413 kts | 306° |
| 2026-05-05 18:05 | 45.34175 | 24.52942 | 32255 ft | 414 kts | 306° |
| 2026-05-05 18:05 | 45.35768 | 24.49536 | 32599 ft | 415 kts | 306° |
| 2026-05-05 18:05 | 45.37398 | 24.46048 | 32864 ft | 418 kts | 306° |
| 2026-05-05 18:06 | 45.38983 | 24.42641 | 33090 ft | 404 kts | 306° |
| 2026-05-05 18:06 | 45.39997 | 24.40462 | 32802 ft | 402 kts | 306° |
| 2026-05-05 18:06 | 45.42090 | 24.35992 | 31742 ft | 407 kts | 306° |
| 2026-05-05 18:06 | 45.43665 | 24.32615 | 30865 ft | 412 kts | 305° |
| 2026-05-05 18:07 | 45.45275 | 24.29176 | 29861 ft | 420 kts | 306° |
| 2026-05-05 18:07 | 45.46905 | 24.25691 | 28968 ft | 424 kts | 306° |
| 2026-05-05 18:07 | 45.48516 | 24.22259 | 28767 ft | 410 kts | 305° |
| 2026-05-05 18:07 | 45.50066 | 24.18882 | 28542 ft | 400 kts | 305° |
| 2026-05-05 18:08 | 45.51574 | 24.15587 | 28051 ft | 396 kts | 305° |
| 2026-05-05 18:08 | 45.53097 | 24.12288 | 27212 ft | 401 kts | 306° |
| 2026-05-05 18:08 | 45.54662 | 24.09009 | 26384 ft | 404 kts | 307° |
| 2026-05-05 18:08 | 45.56002 | 24.06332 | 25879 ft | 402 kts | 308° |
| 2026-05-05 18:09 | 45.57630 | 24.03136 | 25225 ft | 401 kts | 308° |
| 2026-05-05 18:09 | 45.59277 | 23.99916 | 24609 ft | 399 kts | 308° |
| 2026-05-05 18:09 | 45.60907 | 23.96754 | 24051 ft | 395 kts | 308° |
| 2026-05-05 18:09 | 45.62239 | 23.94190 | 23611 ft | 392 kts | 308° |
| 2026-05-05 18:10 | 45.63842 | 23.91143 | 23178 ft | 386 kts | 309° |
| 2026-05-05 18:10 | 45.65296 | 23.88468 | 22886 ft | 378 kts | 310° |
| 2026-05-05 18:11 | 45.65511 | 23.88080 | 22829 ft | 377 kts | 310° |
| 2026-05-05 18:11 | 45.67187 | 23.85115 | 22033 ft | 387 kts | 311° |
| 2026-05-05 18:11 | 45.68911 | 23.82145 | 20989 ft | 397 kts | 312° |
| 2026-05-05 18:11 | 45.70649 | 23.79206 | 20815 ft | 383 kts | 312° |
| 2026-05-05 18:12 | 45.72356 | 23.76364 | 20475 ft | 375 kts | 312° |
| 2026-05-05 18:12 | 45.74081 | 23.73540 | 19452 ft | 387 kts | 313° |
| 2026-05-05 18:12 | 45.75904 | 23.70608 | 18305 ft | 400 kts | 313° |
| 2026-05-05 18:12 | 45.77751 | 23.67693 | 17758 ft | 395 kts | 314° |
| 2026-05-05 18:13 | 45.79566 | 23.64868 | 17623 ft | 381 kts | 314° |
| 2026-05-05 18:13 | 45.81373 | 23.62084 | 17101 ft | 378 kts | 314° |
| 2026-05-05 18:13 | 45.83165 | 23.59320 | 16293 ft | 382 kts | 313° |
| 2026-05-05 18:13 | 45.84843 | 23.56532 | 16352 ft | 362 kts | 311° |
| 2026-05-05 18:14 | 45.86417 | 23.53809 | 16166 ft | 351 kts | 311° |
| 2026-05-05 18:14 | 45.87961 | 23.51112 | 15525 ft | 355 kts | 311° |
| 2026-05-05 18:14 | 45.89556 | 23.48335 | 14632 ft | 365 kts | 311° |
| 2026-05-05 18:14 | 45.91139 | 23.45579 | 14461 ft | 350 kts | 311° |
| 2026-05-05 18:15 | 45.92635 | 23.42953 | 14380 ft | 336 kts | 311° |
| 2026-05-05 18:15 | 45.94115 | 23.40369 | 13816 ft | 339 kts | 311° |
| 2026-05-05 18:15 | 45.95630 | 23.37765 | 13462 ft | 342 kts | 309° |
| 2026-05-05 18:15 | 45.97007 | 23.34916 | 13293 ft | 345 kts | 302° |
| 2026-05-05 18:16 | 45.98218 | 23.32004 | 13165 ft | 333 kts | 300° |
| 2026-05-05 18:16 | 45.99345 | 23.29114 | 12758 ft | 331 kts | 299° |
| 2026-05-05 18:16 | 46.00456 | 23.26200 | 12145 ft | 335 kts | 299° |
| 2026-05-05 18:16 | 46.01528 | 23.23297 | 11900 ft | 327 kts | 298° |
| 2026-05-05 18:17 | 46.02551 | 23.20458 | 11760 ft | 315 kts | 298° |